Time;durP1;ratioP1;P1;durP2;ratioP2;P2;SDS_P1;SDS_P2;PMS_P1;PMS_P2;Temp;Humidity;BMP_temperature;BMP_pressure;BME280_temperature;BME280_humidity;BME280_pressure;Samples;Min_cycle;Max_cycle;Signal;HPM_P1;HPM_P2
2023/11/02 00:01:06;;;;;;;;;;;;;;;10.75;100.00;99292.09;5024820;28;20419;-69
2023/11/02 00:03:34;;;;;;;;;;;;;;;10.74;100.00;99299.16;5028772;28;19975;-64
2023/11/02 00:06:05;;;;;;;;;;;;;;;10.75;100.00;99284.22;5009193;28;20401;-62
2023/11/02 00:08:58;;;;;;;;;;;;;;;10.71;100.00;99293.31;5031249;28;19964;-66
2023/11/02 00:12:02;;;;;;;;;;;;;;;10.71;100.00;99278.34;5027172;28;19932;-64
2023/11/02 00:15:19;;;;;;;;;;;;;;;10.73;100.00;99265.91;5025521;28;19971;-67
2023/11/02 00:19:00;;;;;;;;;;;;;;;10.74;100.00;99272.00;5019019;28;19980;-66
2023/11/02 00:22:17;;;;;;;;;;;;;;;10.75;100.00;99263.97;5017056;28;20403;-67
2023/11/02 00:24:47;;;;;;;;;;;;;;;10.75;100.00;99260.53;5025437;28;20419;-64
2023/11/02 00:27:40;;;;;;;;;;;;;;;10.73;100.00;99265.91;5023395;28;19925;-64
2023/11/02 00:30:32;;;;;;;;;;;;;;;10.72;100.00;99258.16;5026926;28;19932;-64
2023/11/02 00:33:00;;;;;;;;;;;;;;;10.68;100.00;99248.84;5005083;28;19929;-62
2023/11/02 00:35:32;;;;;;;;;;;;;;;10.66;100.00;99248.94;5022965;28;19972;-62
2023/11/02 00:41:20;;;;;;;;;;;;;;;10.70;100.00;99245.09;5027366;28;20344;-65
2023/11/02 00:44:19;;;;;;;;;;;;;;;10.71;100.00;99241.50;5028899;28;19932;-71
2023/11/02 00:47:16;;;;;;;;;;;;;;;10.74;100.00;99253.59;5023851;28;20097;-68
2023/11/02 00:56:24;;;;;;;;;;;;;;;10.74;100.00;99229.91;5019124;28;19980;-70
2023/11/02 00:58:52;;;;;;;;;;;;;;;10.75;100.00;99234.19;5025902;28;19925;-65
2023/11/02 01:16:06;;;;;;;;;;;;;;;10.77;100.00;99213.88;5018461;28;19984;-65
2023/11/02 01:18:34;;;;;;;;;;;;;;;10.77;100.00;99206.81;5022556;28;19930;-69
2023/11/02 01:24:48;;;;;;;;;;;;;;;10.77;100.00;99203.34;5023368;28;19921;-78
2023/11/02 01:27:41;;;;;;;;;;;;;;;10.77;100.00;99196.28;5009564;28;19933;-70
2023/11/02 01:30:58;;;;;;;;;;;;;;;10.76;100.00;99194.59;5023070;28;19929;-68
2023/11/02 01:34:18;;;;;;;;;;;;;;;10.75;100.00;99186.81;5014271;28;20452;-76
2023/11/02 01:37:37;;;;;;;;;;;;;;;10.75;100.00;99177.13;5030405;28;20290;-73
2023/11/02 01:56:32;;;;;;;;;;;;;;;10.58;100.00;99151.34;5013337;28;19921;-70
2023/11/02 01:59:22;;;;;;;;;;;;;;;10.56;100.00;99142.75;5018036;28;20545;-70
2023/11/02 02:01:54;;;;;;;;;;;;;;;10.54;100.00;99140.28;5018571;28;19972;-69
2023/11/02 02:05:03;;;;;;;;;;;;;;;10.56;100.00;99140.97;5016417;28;20394;-73
2023/11/02 02:07:31;;;;;;;;;;;;;;;10.56;100.00;99140.97;5022809;28;19956;-69
2023/11/02 02:10:07;;;;;;;;;;;;;;;10.55;100.00;99144.56;5018513;28;19925;-66
2023/11/02 02:13:26;;;;;;;;;;;;;;;10.56;100.00;99137.50;5022595;28;19956;-73
2023/11/02 02:16:14;;;;;;;;;;;;;;;10.56;100.00;99138.34;5028288;28;19925;-65
2023/11/02 02:21:52;;;;;;;;;;;;;;;10.61;100.00;99140.59;5025138;28;19979;-69
2023/11/02 02:24:22;;;;;;;;;;;;;;;10.63;100.00;99133.41;5040303;28;20402;-67
2023/11/02 02:26:54;;;;;;;;;;;;;;;10.64;100.00;99142.97;5012351;28;19929;-66
2023/11/02 02:29:34;;;;;;;;;;;;;;;10.64;100.00;99145.59;5010459;28;19999;-64
2023/11/02 02:32:19;;;;;;;;;;;;;;;10.65;100.00;99134.94;5031482;28;20059;-66
2023/11/02 02:35:11;;;;;;;;;;;;;;;10.64;100.00;99135.06;5023102;28;20381;-66
2023/11/02 02:37:43;;;;;;;;;;;;;;;10.63;100.00;99123.72;5028546;28;19933;-69
2023/11/02 02:40:12;;;;;;;;;;;;;;;10.63;100.00;99126.34;5024705;28;19933;-73
2023/11/02 02:42:40;;;;;;;;;;;;;;;10.62;100.00;99115.94;5025634;28;20040;-65
2023/11/02 02:45:10;;;;;;;;;;;;;;;10.60;100.00;99125.75;5014702;28;19948;-67
2023/11/02 02:47:38;;;;;;;;;;;;;;;10.57;100.00;99118.13;5026539;28;19929;-62
2023/11/02 02:50:09;;;;;;;;;;;;;;;10.54;100.00;99113.13;5025915;28;19956;-64
2023/11/02 02:52:38;;;;;;;;;;;;;;;10.52;100.00;99100.06;5025336;28;19971;-71
2023/11/02 02:55:05;;;;;;;;;;;;;;;10.47;100.00;99109.31;5039899;28;19932;-64
2023/11/02 02:57:33;;;;;;;;;;;;;;;10.41;100.00;99100.16;5025103;28;19925;-69
2023/11/02 03:00:00;;;;;;;;;;;;;;;10.36;100.00;99097.91;5044330;28;19925;-69
2023/11/02 03:02:30;;;;;;;;;;;;;;;10.32;100.00;99096.47;5024433;28;19975;-64
2023/11/02 03:04:57;;;;;;;;;;;;;;;10.28;100.00;99094.22;5030589;28;19966;-66
2023/11/02 03:07:30;;;;;;;;;;;;;;;10.23;100.00;99094.56;5024292;28;19929;-70
2023/11/02 03:10:01;;;;;;;;;;;;;;;10.21;100.00;99083.31;5034529;28;19993;-66
2023/11/02 03:12:31;;;;;;;;;;;;;;;10.17;100.00;99067.91;5027946;28;20385;-65
2023/11/02 03:21:27;;;;;;;;;;;;;;;10.01;100.00;99053.41;5025362;28;20396;-68
2023/11/02 03:23:57;;;;;;;;;;;;;;;9.95;100.00;99046.03;5019524;28;19925;-70
2023/11/02 03:26:24;;;;;;;;;;;;;;;9.90;100.00;99059.53;5024393;28;19929;-64
2023/11/02 03:29:01;;;;;;;;;;;;;;;9.86;100.00;99050.25;5020772;28;19932;-67
2023/11/02 03:31:35;;;;;;;;;;;;;;;9.82;100.00;99043.56;5022603;28;20095;-73
2023/11/02 03:34:11;;;;;;;;;;;;;;;9.81;100.00;99041.88;5006859;28;19932;-71
2023/11/02 03:36:42;;;;;;;;;;;;;;;9.79;100.00;99045.59;5022356;28;20463;-82
2023/11/02 03:39:24;;;;;;;;;;;;;;;9.76;100.00;99043.22;5027339;28;19979;-65
2023/11/02 03:45:03;;;;;;;;;;;;;;;9.69;100.00;99048.13;5022918;28;19925;-76
2023/11/02 03:47:42;;;;;;;;;;;;;;;9.69;100.00;99048.13;5026251;28;20023;-71
2023/11/02 03:50:19;;;;;;;;;;;;;;;9.68;100.00;99041.22;5024504;28;19995;-66
2023/11/02 03:52:49;;;;;;;;;;;;;;;9.66;100.00;99042.28;5019956;28;19929;-72
2023/11/02 03:55:24;;;;;;;;;;;;;;;9.64;100.00;99039.78;5025533;28;19954;-68
2023/11/02 03:58:20;;;;;;;;;;;;;;;9.60;100.00;99030.47;5022716;28;20024;-75
2023/11/02 04:01:27;;;;;;;;;;;;;;;9.56;100.00;99026.44;5016348;28;20405;-70
2023/11/02 04:04:02;;;;;;;;;;;;;;;9.53;100.00;99024.88;5024923;28;19925;-72
2023/11/02 04:06:55;;;;;;;;;;;;;;;9.52;100.00;99025.84;5042819;28;19975;-74
2023/11/02 04:09:49;;;;;;;;;;;;;;;9.50;100.00;99032.16;5021939;28;20286;-66
2023/11/02 04:12:32;;;;;;;;;;;;;;;9.49;100.00;99028.69;5024538;28;20358;-74
2023/11/02 04:15:01;;;;;;;;;;;;;;;9.50;100.00;99024.28;5014392;28;19925;-73
2023/11/02 04:17:28;;;;;;;;;;;;;;;9.49;100.00;99010.31;5016451;28;19925;-65
2023/11/02 04:19:55;;;;;;;;;;;;;;;9.48;100.00;99013.06;5017711;28;20414;-73
2023/11/02 04:22:22;;;;;;;;;;;;;;;9.44;100.00;99001.97;5022929;28;20036;-75
2023/11/02 04:24:55;;;;;;;;;;;;;;;9.40;100.00;99000.53;5023781;28;19929;-63
2023/11/02 04:27:28;;;;;;;;;;;;;;;9.36;100.00;98997.31;5034306;28;20430;-73
2023/11/02 04:30:20;;;;;;;;;;;;;;;9.34;100.00;99003.66;5020526;28;19999;-74
2023/11/02 04:33:16;;;;;;;;;;;;;;;9.29;100.00;98998.78;5017867;28;19925;-73
2023/11/02 04:36:08;;;;;;;;;;;;;;;9.28;100.00;98989.25;5019612;28;20014;-68
2023/11/02 04:38:35;;;;;;;;;;;;;;;9.26;100.00;98977.19;5018999;28;19961;-66
2023/11/02 04:41:28;;;;;;;;;;;;;;;9.24;100.00;98974.69;5021476;28;19933;-67
2023/11/02 04:43:55;;;;;;;;;;;;;;;9.20;100.00;98981.13;5024608;28;20288;-67
2023/11/02 04:46:22;;;;;;;;;;;;;;;9.18;100.00;98980.41;5020615;28;20071;-70
2023/11/02 04:48:49;;;;;;;;;;;;;;;9.16;100.00;98973.63;5012259;28;19929;-70
2023/11/02 04:51:16;;;;;;;;;;;;;;;9.12;100.00;98955.47;5027632;28;19940;-73
2023/11/02 04:53:43;;;;;;;;;;;;;;;9.13;100.00;98951.88;5026847;28;19932;-71
2023/11/02 04:56:11;;;;;;;;;;;;;;;9.13;100.00;98951.06;5020461;28;19994;-68
2023/11/02 04:58:41;;;;;;;;;;;;;;;9.11;100.00;98953.81;5023118;28;19929;-73
2023/11/02 05:04:53;;;;;;;;;;;;;;;9.05;100.00;98943.81;5020090;28;20051;-69
2023/11/02 05:07:20;;;;;;;;;;;;;;;9.05;100.00;98943.81;5018393;28;19979;-71
2023/11/02 05:09:47;;;;;;;;;;;;;;;9.02;100.00;98936.19;5023114;28;19939;-69
2023/11/02 05:12:14;;;;;;;;;;;;;;;8.99;100.00;98936.41;5019940;28;19926;-69
2023/11/02 05:14:43;;;;;;;;;;;;;;;8.98;100.00;98926.03;5022917;28;19956;-65
2023/11/02 05:17:35;;;;;;;;;;;;;;;8.96;100.00;98926.19;5020372;28;19957;-71
2023/11/02 05:20:57;;;;;;;;;;;;;;;8.97;100.00;98921.75;5017441;28;19922;-68
2023/11/02 05:24:37;;;;;;;;;;;;;;;8.95;100.00;98905.28;5020882;28;20374;-75
2023/11/02 05:27:56;;;;;;;;;;;;;;;8.94;100.00;98907.06;5013666;28;19979;-68
2023/11/02 05:31:14;;;;;;;;;;;;;;;8.94;100.00;98903.63;5022068;28;20525;-65
2023/11/02 05:34:12;;;;;;;;;;;;;;;8.94;100.00;98903.63;5020137;28;19979;-68
2023/11/02 05:36:39;;;;;;;;;;;;;;;8.92;100.00;98900.28;5020511;28;20407;-70
2023/11/02 05:39:12;;;;;;;;;;;;;;;8.91;100.00;98891.56;5019737;28;19964;-67
2023/11/02 05:41:40;;;;;;;;;;;;;;;8.91;100.00;98886.31;5013300;28;19988;-64
2023/11/02 05:44:35;;;;;;;;;;;;;;;8.92;100.00;98882.75;5021292;28;20011;-74
2023/11/02 05:47:33;;;;;;;;;;;;;;;8.91;100.00;98865.31;5021942;28;19943;-72
2023/11/02 05:50:27;;;;;;;;;;;;;;;8.90;100.00;98876.78;5015090;28;19935;-77
2023/11/02 05:53:18;;;;;;;;;;;;;;;8.90;100.00;98881.19;5019785;28;19973;-70
2023/11/02 05:56:15;;;;;;;;;;;;;;;8.90;100.00;98891.69;5018831;28;19929;-71
2023/11/02 05:59:07;;;;;;;;;;;;;;;8.90;100.00;98879.41;5022999;28;19973;-69
2023/11/02 06:02:00;;;;;;;;;;;;;;;8.93;100.00;98873.91;5013364;28;19933;-62
2023/11/02 06:04:27;;;;;;;;;;;;;;;8.95;100.00;98863.28;5021627;28;20011;-68
2023/11/02 06:06:55;;;;;;;;;;;;;;;8.95;100.00;98864.13;5016190;28;19934;-66
2023/11/02 06:09:22;;;;;;;;;;;;;;;8.97;100.00;98861.41;5024647;28;20061;-76
2023/11/02 06:12:14;;;;;;;;;;;;;;;8.98;100.00;98863.06;5007533;28;20398;-71
2023/11/02 06:15:08;;;;;;;;;;;;;;;9.00;100.00;98864.56;5022428;28;20007;-71
2023/11/02 06:17:58;;;;;;;;;;;;;;;9.03;100.00;98843.34;5021928;28;19921;-74
2023/11/02 06:20:26;;;;;;;;;;;;;;;9.05;100.00;98843.22;5022217;28;20071;-66
2023/11/02 06:26:18;;;;;;;;;;;;;;;9.12;100.00;98842.59;5023345;28;20391;-71
2023/11/02 06:29:34;;;;;;;;;;;;;;;9.13;100.00;98844.25;5022905;28;20386;-67
2023/11/02 06:32:01;;;;;;;;;;;;;;;9.13;100.00;98841.63;5017910;28;20020;-73
2023/11/02 06:34:32;;;;;;;;;;;;;;;9.17;100.00;98838.78;5021318;28;19925;-65
2023/11/02 06:37:25;;;;;;;;;;;;;;;9.19;100.00;98836.88;5021748;28;20272;-66
2023/11/02 06:40:17;;;;;;;;;;;;;;;9.19;100.00;98836.88;5018607;28;19937;-70
2023/11/02 06:42:44;;;;;;;;;;;;;;;9.20;100.00;98828.03;5018995;28;20009;-65
2023/11/02 06:45:36;;;;;;;;;;;;;;;9.21;100.00;98824.44;5024202;28;20040;-71
2023/11/02 06:48:27;;;;;;;;;;;;;;;9.22;100.00;98823.47;5023934;28;19950;-72
2023/11/02 06:51:00;;;;;;;;;;;;;;;9.21;100.00;98814.75;5022639;28;19937;-71
2023/11/02 06:54:23;;;;;;;;;;;;;;;9.24;100.00;98801.41;5015467;28;20557;-77
2023/11/02 06:57:40;;;;;;;;;;;;;;;9.30;100.00;98795.63;5023379;28;20407;-73
2023/11/02 07:00:11;;;;;;;;;;;;;;;9.35;100.00;98795.25;5018768;28;19925;-70
2023/11/02 07:09:39;;;;;;;;;;;;;;;9.46;100.00;98782.06;5017493;28;19991;-66
2023/11/02 07:12:31;;;;;;;;;;;;;;;9.51;100.00;98779.88;5027128;28;19932;-74
2023/11/02 07:15:00;;;;;;;;;;;;;;;9.60;100.00;98765.13;5020598;28;19940;-71
2023/11/02 07:17:27;;;;;;;;;;;;;;;9.62;100.00;98760.56;5028935;28;19931;-65
2023/11/02 07:19:54;;;;;;;;;;;;;;;9.64;100.00;98751.63;5021829;28;19994;-71
2023/11/02 07:22:22;;;;;;;;;;;;;;;9.70;100.00;98754.69;5019623;28;19987;-71
2023/11/02 07:25:14;;;;;;;;;;;;;;;9.75;100.00;98749.84;5020620;28;20448;-76
2023/11/02 07:28:09;;;;;;;;;;;;;;;9.84;100.00;98749.91;5025132;28;20008;-72
2023/11/02 07:33:55;;;;;;;;;;;;;;;10.09;100.00;98732.03;5025462;28;19940;-66
2023/11/02 07:36:25;;;;;;;;;;;;;;;10.11;100.00;98741.44;5022053;28;19971;-70
2023/11/02 07:38:52;;;;;;;;;;;;;;;10.17;100.00;98732.16;5022321;28;19926;-69
2023/11/02 07:41:20;;;;;;;;;;;;;;;10.18;100.00;98738.25;5028377;28;20059;-72
2023/11/02 07:43:48;;;;;;;;;;;;;;;10.22;100.00;98727.38;5025261;28;19964;-75
2023/11/02 07:46:40;;;;;;;;;;;;;;;10.24;100.00;98717.56;5014982;28;19987;-69
2023/11/02 07:49:56;;;;;;;;;;;;;;;10.34;100.00;98699.16;5017604;28;19976;-70
2023/11/02 07:52:24;;;;;;;;;;;;;;;10.35;100.00;98704.28;5027722;28;19933;-64
2023/11/02 07:54:51;;;;;;;;;;;;;;;10.42;100.00;98707.22;5017130;28;19925;-71
2023/11/02 07:57:18;;;;;;;;;;;;;;;10.43;100.00;98679.94;5022481;28;19930;-67
2023/11/02 08:00:10;;;;;;;;;;;;;;;10.46;100.00;98677.03;5018793;28;19929;-74
2023/11/02 08:03:50;;;;;;;;;;;;;;;10.59;100.00;98700.47;5025194;28;20498;-65
2023/11/02 08:07:31;;;;;;;;;;;;;;;10.70;100.00;98702.09;5026857;28;19936;-75
2023/11/02 08:10:47;;;;;;;;;;;;;;;10.81;99.94;98699.34;5027973;28;19932;-77
2023/11/02 08:19:47;;;;;;;;;;;;;;;11.57;95.82;98700.19;5021674;28;20010;-71
2023/11/02 08:22:14;;;;;;;;;;;;;;;11.63;95.44;98683.81;5024675;28;19972;-68
2023/11/02 08:28:23;;;;;;;;;;;;;;;11.58;93.92;98672.88;5020382;28;19935;-69
2023/11/02 08:30:50;;;;;;;;;;;;;;;11.85;92.63;98658.91;5010919;28;20295;-65
2023/11/02 08:33:18;;;;;;;;;;;;;;;12.01;90.68;98650.34;5017273;28;19932;-67
2023/11/02 08:35:45;;;;;;;;;;;;;;;12.05;91.31;98645.59;5022606;28;19929;-72
2023/11/02 08:38:12;;;;;;;;;;;;;;;12.11;90.45;98640.59;5024328;28;19980;-65
2023/11/02 08:40:40;;;;;;;;;;;;;;;12.11;90.00;98643.22;5021940;28;19980;-72
2023/11/02 08:43:12;;;;;;;;;;;;;;;12.11;90.03;98643.22;5016956;28;20410;-69
2023/11/02 08:45:44;;;;;;;;;;;;;;;12.13;90.27;98622.78;5040606;28;20468;-70
2023/11/02 08:48:12;;;;;;;;;;;;;;;12.14;89.62;98620.97;5023879;28;19925;-67
2023/11/02 08:50:40;;;;;;;;;;;;;;;12.05;90.33;98629.78;5024822;28;20284;-72
2023/11/02 08:53:08;;;;;;;;;;;;;;;12.02;90.09;98616.88;5020426;28;20288;-74
2023/11/02 08:55:35;;;;;;;;;;;;;;;11.98;90.25;98599.69;5035970;28;20382;-64
2023/11/02 08:58:02;;;;;;;;;;;;;;;11.91;90.75;98610.03;5023064;28;19925;-71
2023/11/02 09:00:29;;;;;;;;;;;;;;;11.78;90.95;98605.06;5025469;28;20384;-75
2023/11/02 09:03:24;;;;;;;;;;;;;;;11.71;91.26;98582.94;5027348;28;20391;-72
2023/11/02 09:05:51;;;;;;;;;;;;;;;11.71;91.55;98579.44;5028908;28;19971;-69
2023/11/02 09:11:38;;;;;;;;;;;;;;;11.82;90.85;98571.34;5018559;28;19932;-71
2023/11/02 09:14:33;;;;;;;;;;;;;;;11.96;90.25;98572.66;5030027;28;20236;-79
2023/11/02 09:17:06;;;;;;;;;;;;;;;12.21;90.42;98571.09;5031097;28;19983;-73
2023/11/02 09:19:34;;;;;;;;;;;;;;;12.25;88.98;98553.97;5028456;28;19956;-72
2023/11/02 09:22:03;;;;;;;;;;;;;;;12.30;88.27;98554.38;5006129;28;19925;-72
2023/11/02 09:27:48;;;;;;;;;;;;;;;12.38;88.31;98538.56;5019540;28;20497;-77
2023/11/02 09:30:40;;;;;;;;;;;;;;;12.44;88.36;98537.97;5009081;28;19929;-73
2023/11/02 09:33:32;;;;;;;;;;;;;;;12.53;87.97;98531.78;5037023;28;19947;-76
2023/11/02 09:36:00;;;;;;;;;;;;;;;12.58;87.66;98533.97;5019309;28;20284;-72
2023/11/02 09:38:52;;;;;;;;;;;;;;;12.73;87.51;98526.31;5024502;28;20346;-72
2023/11/02 09:42:07;;;;;;;;;;;;;;;12.97;85.96;98521.19;5024591;28;19987;-68
2023/11/02 09:51:08;;;;;;;;;;;;;;;13.71;82.13;98495.88;5022041;28;19986;-70
2023/11/02 09:54:02;;;;;;;;;;;;;;;14.51;81.00;98472.28;5024040;28;19929;-70
2023/11/02 09:57:18;;;;;;;;;;;;;;;14.93;76.69;98461.41;5019725;28;20271;-70
2023/11/02 09:59:46;;;;;;;;;;;;;;;14.98;75.26;98471.47;5023579;28;19997;-71
2023/11/02 10:02:19;;;;;;;;;;;;;;;14.91;75.16;98489.06;4998029;28;20333;-73
2023/11/02 10:07:40;;;;;;;;;;;;;;;14.39;75.73;98489.47;4995915;28;20046;-76
2023/11/02 10:10:08;;;;;;;;;;;;;;;14.29;76.62;98479.06;4997411;28;19929;-66
2023/11/02 10:12:36;;;;;;;;;;;;;;;14.35;75.20;98469.59;5014508;28;19933;-75
2023/11/02 10:15:28;;;;;;;;;;;;;;;14.38;76.04;98450.75;5018576;28;19929;-66
2023/11/02 10:18:44;;;;;;;;;;;;;;;14.45;75.04;98398.78;5021389;28;19928;-63
2023/11/02 10:21:16;;;;;;;;;;;;;;;14.33;75.84;98395.69;5020178;28;19955;-72
2023/11/02 10:24:08;;;;;;;;;;;;;;;14.37;73.78;98397.00;5018182;28;20371;-64
2023/11/02 10:27:00;;;;;;;;;;;;;;;14.12;74.61;98404.13;5012124;28;19927;-68
2023/11/02 10:29:55;;;;;;;;;;;;;;;14.05;74.92;98408.47;5016951;28;19925;-75
2023/11/02 10:33:11;;;;;;;;;;;;;;;13.82;74.83;98416.22;5031818;28;20525;-64
2023/11/02 10:35:43;;;;;;;;;;;;;;;13.84;74.86;98418.72;5021848;28;20332;-69
2023/11/02 10:38:36;;;;;;;;;;;;;;;13.78;74.87;98411.41;5026521;28;20404;-73
2023/11/02 10:41:16;;;;;;;;;;;;;;;13.94;75.84;98392.91;5023443;28;19944;-75
2023/11/02 10:51:12;;;;;;;;;;;;;;;13.69;75.12;98386.81;5019233;28;19955;-71
2023/11/02 10:53:46;;;;;;;;;;;;;;;13.56;75.25;98365.31;5000059;28;20015;-70
2023/11/02 10:56:15;;;;;;;;;;;;;;;13.65;75.11;98353.75;5012243;28;20369;-71
2023/11/02 10:59:10;;;;;;;;;;;;;;;13.74;75.07;98347.47;5028684;28;20430;-71
2023/11/02 11:02:27;;;;;;;;;;;;;;;13.68;75.12;98338.38;5013761;28;20053;-67
2023/11/02 11:06:07;;;;;;;;;;;;;;;13.65;74.58;98328.16;5021632;28;19936;-70
2023/11/02 11:09:48;;;;;;;;;;;;;;;13.57;74.77;98356.41;5017299;28;20004;-71
2023/11/02 11:12:40;;;;;;;;;;;;;;;13.63;75.10;98340.69;5018235;28;19925;-71
2023/11/02 11:15:10;;;;;;;;;;;;;;;13.65;74.24;98336.06;5024012;28;19957;-64
2023/11/02 11:17:41;;;;;;;;;;;;;;;13.73;73.97;98327.28;5022112;28;19971;-72
2023/11/02 11:20:09;;;;;;;;;;;;;;;13.73;73.41;98306.13;5021307;28;20039;-70
2023/11/02 11:23:01;;;;;;;;;;;;;;;13.76;73.17;98313.75;5023468;28;20264;-70
2023/11/02 11:25:53;;;;;;;;;;;;;;;13.77;72.73;98309.28;5023090;28;20446;-65
2023/11/02 11:29:34;;;;;;;;;;;;;;;13.81;73.17;98313.25;5025074;28;20547;-71
2023/11/02 11:32:50;;;;;;;;;;;;;;;13.80;73.11;98293.09;5023900;28;20018;-70
2023/11/02 11:38:36;;;;;;;;;;;;;;;13.94;71.77;98276.53;5026480;28;19933;-73
2023/11/02 11:41:14;;;;;;;;;;;;;;;14.03;72.26;98254.34;5025096;28;19960;-70
2023/11/02 11:44:02;;;;;;;;;;;;;;;14.14;72.59;98263.75;5008582;28;19925;-72
2023/11/02 11:46:42;;;;;;;;;;;;;;;14.21;71.68;98261.22;5019921;28;19925;-66
2023/11/02 11:49:38;;;;;;;;;;;;;;;14.32;72.03;98244.97;5020948;28;19979;-66
2023/11/02 11:52:18;;;;;;;;;;;;;;;14.51;72.26;98249.88;5024685;28;19983;-72
2023/11/02 11:54:47;;;;;;;;;;;;;;;14.78;70.14;98253.06;5009302;28;19943;-71
2023/11/02 11:57:53;;;;;;;;;;;;;;;14.97;70.05;98249.13;5027685;28;19977;-72
2023/11/02 12:00:24;;;;;;;;;;;;;;;15.20;68.21;98239.31;5018437;28;19969;-74
2023/11/02 12:03:18;;;;;;;;;;;;;;;15.39;67.41;98238.00;5023669;28;20295;-74
2023/11/02 12:05:45;;;;;;;;;;;;;;;15.42;67.39;98233.16;5028050;28;19929;-72
2023/11/02 12:08:12;;;;;;;;;;;;;;;15.51;67.02;98241.06;5018518;28;19968;-69
2023/11/02 12:11:04;;;;;;;;;;;;;;;15.57;66.89;98249.09;5022567;28;19929;-74
2023/11/02 12:13:32;;;;;;;;;;;;;;;15.55;66.95;98253.78;5026988;28;19929;-65
2023/11/02 12:16:03;;;;;;;;;;;;;;;15.53;66.33;98249.66;5015201;28;19925;-66
2023/11/02 12:18:32;;;;;;;;;;;;;;;15.41;67.15;98241.31;5020616;28;19925;-70
2023/11/02 12:21:00;;;;;;;;;;;;;;;15.42;66.49;98235.00;5020760;28;20040;-68
2023/11/02 12:23:32;;;;;;;;;;;;;;;15.26;67.47;98229.84;5021409;28;20047;-71
2023/11/02 12:26:04;;;;;;;;;;;;;;;15.33;67.18;98220.16;5012913;28;19933;-71
2023/11/02 12:28:50;;;;;;;;;;;;;;;15.22;66.94;98213.50;5007060;28;19931;-69
2023/11/02 12:31:48;;;;;;;;;;;;;;;15.08;67.74;98223.00;5021356;28;19932;-66
2023/11/02 12:34:18;;;;;;;;;;;;;;;15.09;68.06;98222.03;5028160;28;19929;-65
2023/11/02 12:36:46;;;;;;;;;;;;;;;15.01;68.44;98222.09;5023711;28;20292;-68
2023/11/02 12:39:13;;;;;;;;;;;;;;;15.04;68.59;98216.44;5001115;28;19945;-72
2023/11/02 12:42:09;;;;;;;;;;;;;;;15.04;69.11;98207.66;5012201;28;19925;-70
2023/11/02 12:44:43;;;;;;;;;;;;;;;15.01;69.02;98218.63;5019254;28;19925;-72
2023/11/02 12:47:10;;;;;;;;;;;;;;;14.93;69.47;98211.56;5000561;28;20008;-74
2023/11/02 12:49:37;;;;;;;;;;;;;;;14.78;69.95;98216.78;5017196;28;20001;-71
2023/11/02 12:52:10;;;;;;;;;;;;;;;14.74;70.64;98198.78;5014942;28;20012;-68
2023/11/02 12:55:50;;;;;;;;;;;;;;;14.52;71.03;98198.59;5018615;28;19960;-73
2023/11/02 12:58:43;;;;;;;;;;;;;;;14.32;72.56;98192.03;4996045;28;19945;-72
2023/11/02 13:01:42;;;;;;;;;;;;;;;14.36;73.06;98185.41;5021605;28;20326;-71
2023/11/02 13:10:20;;;;;;;;;;;;;;;14.19;74.10;98179.38;5017329;28;20056;-74
2023/11/02 13:13:13;;;;;;;;;;;;;;;14.17;73.88;98163.66;5025315;28;19948;-71
2023/11/02 13:15:50;;;;;;;;;;;;;;;14.22;74.33;98172.91;5017383;28;19941;-65
2023/11/02 13:21:15;;;;;;;;;;;;;;;14.19;74.34;98168.81;5017879;28;19964;-71
2023/11/02 13:24:10;;;;;;;;;;;;;;;14.07;74.83;98173.66;5022089;28;20257;-67
2023/11/02 13:27:09;;;;;;;;;;;;;;;14.01;75.19;98166.41;5023975;28;19961;-73
2023/11/02 13:30:01;;;;;;;;;;;;;;;14.05;75.59;98154.50;5024841;28;20288;-64
2023/11/02 13:32:54;;;;;;;;;;;;;;;14.01;75.80;98158.47;5017145;28;19937;-64
2023/11/02 13:35:27;;;;;;;;;;;;;;;14.02;75.36;98172.53;5038024;28;19933;-70
2023/11/02 13:38:43;;;;;;;;;;;;;;;13.99;76.07;98172.84;5032079;28;20011;-68
2023/11/02 13:41:59;;;;;;;;;;;;;;;14.08;76.04;98191.16;5022785;28;20004;-71
2023/11/02 13:44:51;;;;;;;;;;;;;;;14.06;76.20;98184.41;5019226;28;19979;-64
2023/11/02 13:47:45;;;;;;;;;;;;;;;14.02;76.13;98191.03;5026379;28;19921;-72
2023/11/02 13:53:07;;;;;;;;;;;;;;;14.03;76.72;98185.56;5021289;28;20454;-73
2023/11/02 13:55:59;;;;;;;;;;;;;;;13.96;76.97;98192.56;5022898;28;19933;-72
2023/11/02 13:59:20;;;;;;;;;;;;;;;13.97;77.02;98180.16;5020896;28;19921;-72
2023/11/02 14:02:36;;;;;;;;;;;;;;;13.97;76.93;98172.22;5018485;28;20004;-73
2023/11/02 14:05:06;;;;;;;;;;;;;;;13.98;76.77;98172.03;5021690;28;19925;-72
2023/11/02 14:07:34;;;;;;;;;;;;;;;13.97;77.21;98166.94;5021990;28;20330;-71
2023/11/02 14:10:01;;;;;;;;;;;;;;;13.92;77.21;98157.69;5024105;28;19940;-70
2023/11/02 14:12:28;;;;;;;;;;;;;;;13.98;76.88;98153.53;5020333;28;20369;-69
2023/11/02 14:15:07;;;;;;;;;;;;;;;14.00;76.53;98148.03;5020253;28;19959;-73
2023/11/02 14:17:34;;;;;;;;;;;;;;;13.94;76.59;98139.81;5019023;28;19960;-74
2023/11/02 14:20:02;;;;;;;;;;;;;;;13.91;77.28;98141.97;5022028;28;19929;-71
2023/11/02 14:22:29;;;;;;;;;;;;;;;13.98;76.99;98129.72;5012742;28;19952;-65
2023/11/02 14:24:56;;;;;;;;;;;;;;;14.02;76.91;98122.25;5042934;28;19983;-73
2023/11/02 14:27:25;;;;;;;;;;;;;;;14.03;76.82;98126.53;5007280;28;19929;-72
2023/11/02 14:29:52;;;;;;;;;;;;;;;13.99;76.86;98127.88;4993918;28;19965;-70
2023/11/02 14:32:19;;;;;;;;;;;;;;;13.91;77.11;98115.50;5019223;28;19972;-73
2023/11/02 14:34:46;;;;;;;;;;;;;;;13.94;77.12;98116.00;5021952;28;20025;-71
2023/11/02 14:37:14;;;;;;;;;;;;;;;13.90;77.18;98113.88;5018882;28;19936;-72
2023/11/02 14:39:43;;;;;;;;;;;;;;;13.86;77.28;98109.94;5020525;28;20037;-71
2023/11/02 14:42:11;;;;;;;;;;;;;;;13.87;77.03;98109.78;5019826;28;19925;-70
2023/11/02 14:44:39;;;;;;;;;;;;;;;13.81;77.56;98106.97;5009089;28;19929;-69
2023/11/02 14:47:06;;;;;;;;;;;;;;;13.73;77.82;98110.47;5019173;28;19976;-72
2023/11/02 14:49:33;;;;;;;;;;;;;;;13.69;78.25;98111.84;5023119;28;20079;-71
2023/11/02 14:52:06;;;;;;;;;;;;;;;13.64;78.60;98107.06;5021593;28;20419;-72
2023/11/02 14:54:38;;;;;;;;;;;;;;;13.61;78.49;98090.72;5029747;28;19964;-72
2023/11/02 14:57:18;;;;;;;;;;;;;;;13.68;78.64;98094.31;5018796;28;19960;-71
2023/11/02 14:59:45;;;;;;;;;;;;;;;13.66;78.49;98089.19;5021484;28;20507;-71
2023/11/02 15:02:12;;;;;;;;;;;;;;;13.62;78.36;98085.25;5024683;28;19933;-71
2023/11/02 15:04:40;;;;;;;;;;;;;;;13.59;78.95;98076.81;5024881;28;19956;-72
2023/11/02 15:07:09;;;;;;;;;;;;;;;13.58;78.85;98076.00;5019852;28;20265;-72
2023/11/02 15:09:36;;;;;;;;;;;;;;;13.55;78.93;98078.16;5016077;28;19991;-70
2023/11/02 15:12:04;;;;;;;;;;;;;;;13.48;79.23;98078.03;5018693;28;19925;-71
2023/11/02 15:14:31;;;;;;;;;;;;;;;13.48;78.99;98088.63;5005176;28;20323;-69
2023/11/02 15:16:58;;;;;;;;;;;;;;;13.43;79.11;98089.13;5020581;28;19978;-71
2023/11/02 15:19:26;;;;;;;;;;;;;;;13.40;79.60;98096.56;5026058;28;20008;-69
2023/11/02 15:21:53;;;;;;;;;;;;;;;13.37;79.67;98099.53;5025599;28;19979;-75
2023/11/02 15:24:20;;;;;;;;;;;;;;;13.37;79.78;98095.09;5019856;28;19953;-65
2023/11/02 15:26:47;;;;;;;;;;;;;;;13.35;79.94;98101.53;5024158;28;19968;-62
2023/11/02 15:29:14;;;;;;;;;;;;;;;13.32;80.09;98107.16;5027381;28;19979;-63
2023/11/02 15:31:41;;;;;;;;;;;;;;;13.28;79.98;98100.56;5026216;28;20252;-63
2023/11/02 15:34:08;;;;;;;;;;;;;;;13.25;80.04;98098.28;5029615;28;20403;-72
2023/11/02 15:36:39;;;;;;;;;;;;;;;13.26;80.20;98097.28;5027386;28;19936;-71
2023/11/02 15:39:09;;;;;;;;;;;;;;;13.18;80.08;98095.44;5018795;28;20027;-73
2023/11/02 15:41:37;;;;;;;;;;;;;;;13.17;80.69;98101.72;5020427;28;19971;-75
2023/11/02 15:44:04;;;;;;;;;;;;;;;13.15;80.60;98096.59;5022521;28;20020;-71
2023/11/02 15:46:31;;;;;;;;;;;;;;;13.13;80.81;98103.84;5009430;28;19953;-72
2023/11/02 15:48:58;;;;;;;;;;;;;;;13.10;80.81;98091.00;5015240;28;19925;-74
2023/11/02 15:51:26;;;;;;;;;;;;;;;13.13;81.27;98084.56;5023821;28;20457;-73
2023/11/02 15:53:53;;;;;;;;;;;;;;;13.14;81.06;98083.56;5025252;28;19925;-67
2023/11/02 15:56:20;;;;;;;;;;;;;;;13.12;81.02;98078.44;5018755;28;19961;-75
2023/11/02 15:58:47;;;;;;;;;;;;;;;13.10;81.12;98071.66;5009206;28;20087;-71